createdAt,value
2022-11-14T00:00:48.626Z,50.20
2022-11-14T00:03:34.145Z,50.20
2022-11-14T00:11:51.180Z,50.00
2022-11-14T00:17:22.956Z,50.00
2022-11-14T00:20:11.340Z,50.00
2022-11-14T00:25:45.006Z,50.00
2022-11-14T01:18:21.242Z,49.40
2022-11-14T01:21:08.895Z,49.40
2022-11-14T01:51:41.780Z,49.10
2022-11-14T01:54:29.739Z,49.20
2022-11-14T01:57:21.125Z,49.20
2022-11-14T02:02:55.832Z,49.10
2022-11-14T02:11:13.289Z,49.20
2022-11-14T02:20:12.007Z,48.90
2022-11-14T02:22:57.608Z,48.90
2022-11-14T02:31:17.111Z,49.10
2022-11-14T02:34:02.829Z,48.80
2022-11-14T02:45:06.772Z,48.80
2022-11-14T02:53:24.347Z,48.70
2022-11-14T02:56:09.891Z,48.60
2022-11-14T03:07:13.253Z,47.50
2022-11-14T03:21:12.324Z,48.40
2022-11-14T03:26:43.790Z,48.30
2022-11-14T03:35:02.096Z,48.20
2022-11-14T03:43:20.873Z,48.20
2022-11-14T04:05:27.284Z,48.10
2022-11-14T04:08:12.643Z,48.10
2022-11-14T04:16:29.969Z,48.10
2022-11-14T04:33:05.378Z,47.90
2022-11-14T04:35:50.482Z,47.90
2022-11-14T04:49:39.762Z,48.00
2022-11-14T04:55:11.237Z,48.00
2022-11-14T04:57:57.863Z,48.00
2022-11-14T05:00:43.481Z,48.00
2022-11-14T05:03:29.503Z,48.00
2022-11-14T05:20:05.019Z,48.10
2022-11-14T05:22:54.351Z,48.10
2022-11-14T05:25:39.779Z,48.10
2022-11-14T05:31:13.708Z,48.20
2022-11-14T05:33:58.780Z,48.10
2022-11-14T05:36:44.162Z,48.20
2022-11-14T05:47:48.299Z,48.20
2022-11-14T05:50:33.736Z,48.20
2022-11-14T05:53:19.062Z,48.20
2022-11-14T05:56:07.477Z,48.30
2022-11-14T05:58:52.719Z,48.20
2022-11-14T06:18:13.591Z,48.20
2022-11-14T06:21:20.273Z,48.20
2022-11-14T06:29:37.059Z,48.30
2022-11-14T06:32:22.503Z,48.20
2022-11-14T06:35:08.383Z,48.30
2022-11-14T06:37:54.213Z,48.20
2022-11-14T06:46:14.019Z,48.10
2022-11-14T06:51:47.036Z,48.20
2022-11-14T06:54:32.152Z,48.10
2022-11-14T07:00:04.930Z,48.10
2022-11-14T07:05:36.018Z,48.00
2022-11-14T07:11:08.670Z,48.00
2022-11-14T07:14:01.242Z,48.00
2022-11-14T07:16:47.014Z,48.00
2022-11-14T07:19:32.155Z,47.90
2022-11-14T07:27:49.188Z,48.00
2022-11-14T07:30:34.862Z,47.90
2022-11-14T07:33:20.295Z,47.90
2022-11-14T07:36:06.906Z,48.00
2022-11-14T07:38:52.355Z,47.90
2022-11-14T07:41:37.920Z,47.90
2022-11-14T07:44:23.431Z,47.90
2022-11-14T07:49:55.116Z,47.90
2022-11-14T07:52:40.636Z,47.90
2022-11-14T07:58:12.139Z,47.90
2022-11-14T08:01:02.222Z,47.90
2022-11-14T08:03:47.994Z,48.60
2022-11-14T08:09:19.664Z,47.90
2022-11-14T08:12:05.640Z,48.80
2022-11-14T08:14:50.859Z,47.90
2022-11-14T08:20:22.570Z,47.90
2022-11-14T08:23:08.003Z,47.90
2022-11-14T08:25:53.613Z,49.30
2022-11-14T08:28:39.253Z,48.60
2022-11-14T08:31:25.217Z,47.80
2022-11-14T08:34:10.850Z,48.80
2022-11-14T08:36:57.807Z,48.70
2022-11-14T08:39:43.366Z,48.80
2022-11-14T08:42:29.418Z,47.80
2022-11-14T08:45:14.806Z,48.60
2022-11-14T08:48:01.164Z,48.70
2022-11-14T08:50:46.608Z,49.10
2022-11-14T08:53:33.324Z,48.60
2022-11-14T08:56:18.592Z,47.80
2022-11-14T08:59:04.736Z,48.60
2022-11-14T09:01:50.193Z,48.60
2022-11-14T09:04:35.746Z,48.70
2022-11-14T09:07:21.333Z,48.60
2022-11-14T09:10:08.007Z,49.00
2022-11-14T09:13:01.156Z,48.50
2022-11-14T09:15:46.583Z,48.50
2022-11-14T09:18:32.409Z,47.80
2022-11-14T09:21:18.200Z,48.60
2022-11-14T09:24:03.756Z,47.80
2022-11-14T09:26:56.381Z,48.30
2022-11-14T09:29:42.666Z,47.80
2022-11-14T09:32:28.275Z,47.70
2022-11-14T09:35:13.688Z,47.70
2022-11-14T09:38:07.318Z,47.70
2022-11-14T09:41:24.764Z,47.70
2022-11-14T09:44:48.226Z,47.60
2022-11-14T09:47:46.326Z,47.70
2022-11-14T09:50:35.878Z,47.60
2022-11-14T09:53:42.380Z,47.60
2022-11-14T09:56:28.787Z,48.30
2022-11-14T09:59:14.959Z,47.60
2022-11-14T10:02:00.473Z,47.60
2022-11-14T10:05:23.964Z,48.40
2022-11-14T10:11:29.615Z,47.60
2022-11-14T10:14:37.250Z,48.10
2022-11-14T10:20:33.248Z,47.50
2022-11-14T10:29:39.514Z,47.50
2022-11-14T10:32:46.647Z,47.50
2022-11-14T10:35:57.823Z,47.50
2022-11-14T10:39:14.211Z,47.50
2022-11-14T10:42:07.695Z,47.60
2022-11-14T10:45:16.985Z,47.50
2022-11-14T10:48:34.599Z,47.60
2022-11-14T10:51:42.998Z,47.50
2022-11-14T10:54:46.204Z,48.50
2022-11-14T10:57:32.449Z,47.50
2022-11-14T11:00:20.194Z,48.20
2022-11-14T11:03:05.877Z,48.20
2022-11-14T11:05:56.835Z,47.50
2022-11-14T11:09:01.640Z,47.60
2022-11-14T11:11:58.946Z,48.40
2022-11-14T11:14:46.187Z,47.70
2022-11-14T11:17:37.359Z,47.70
2022-11-14T11:20:39.849Z,47.80
2022-11-14T11:23:27.507Z,47.70
2022-11-14T11:26:32.755Z,47.80
2022-11-14T11:29:20.005Z,47.80
2022-11-14T11:34:52.012Z,47.80
2022-11-14T11:37:45.799Z,47.80
2022-11-14T11:40:31.326Z,47.80
2022-11-14T11:43:37.964Z,48.70
2022-11-14T11:46:43.032Z,47.90
2022-11-14T11:52:41.902Z,47.80
2022-11-14T11:55:34.078Z,47.80
2022-11-14T11:58:47.922Z,47.90
2022-11-14T12:01:33.394Z,48.50
2022-11-14T12:04:19.226Z,47.80
2022-11-14T12:07:37.027Z,47.80
2022-11-14T12:10:26.453Z,47.80
2022-11-14T12:13:30.640Z,47.80
2022-11-14T12:16:19.201Z,47.80
2022-11-14T12:19:22.859Z,47.80
2022-11-14T12:22:50.477Z,47.80
2022-11-14T12:25:48.312Z,47.80
2022-11-14T12:28:59.043Z,47.80
2022-11-14T12:31:45.768Z,47.80
2022-11-14T12:34:39.500Z,47.90
2022-11-14T12:37:44.128Z,47.80
2022-11-14T12:40:36.181Z,47.70
2022-11-14T12:43:36.048Z,47.70
2022-11-14T12:46:22.791Z,48.40
2022-11-14T12:49:47.120Z,47.80
2022-11-14T12:52:44.582Z,47.80
2022-11-14T12:55:29.583Z,48.60
2022-11-14T12:58:31.619Z,48.70
2022-11-14T13:01:36.403Z,48.10
2022-11-14T13:04:42.409Z,48.70
2022-11-14T13:07:39.831Z,48.70
2022-11-14T13:10:32.252Z,48.80
2022-11-14T13:13:36.775Z,49.00
2022-11-14T13:16:49.207Z,49.10
2022-11-14T13:19:53.398Z,49.10
2022-11-14T13:22:44.456Z,48.70
2022-11-14T13:28:37.736Z,48.70
2022-11-14T13:31:25.269Z,49.40
2022-11-14T13:34:47.315Z,49.50
2022-11-14T13:37:38.662Z,48.90
2022-11-14T13:40:24.292Z,49.80
2022-11-14T13:43:26.162Z,49.80
2022-11-14T13:46:45.212Z,49.70
2022-11-14T13:49:55.367Z,49.70
2022-11-14T13:52:43.879Z,49.80
2022-11-14T13:55:53.558Z,49.90
2022-11-14T13:59:01.140Z,49.40
2022-11-14T14:01:52.579Z,49.40
2022-11-14T14:04:49.009Z,49.40
2022-11-14T14:08:15.992Z,50.20
2022-11-14T14:11:24.141Z,49.50
2022-11-14T14:14:49.170Z,49.70
2022-11-14T14:18:13.362Z,49.70
2022-11-14T14:21:15.227Z,49.80
2022-11-14T14:24:36.706Z,49.90
2022-11-14T14:27:25.189Z,50.60
2022-11-14T14:30:17.239Z,50.80
2022-11-14T14:33:15.803Z,50.20
2022-11-14T14:38:47.669Z,50.20
2022-11-14T14:44:38.409Z,50.30
2022-11-14T14:50:26.699Z,50.50
2022-11-14T14:53:33.571Z,50.40
2022-11-14T14:56:26.852Z,50.50
2022-11-14T14:59:21.640Z,50.60
2022-11-14T15:18:53.303Z,51.20
2022-11-14T15:30:19.153Z,51.80
2022-11-14T15:36:06.397Z,50.80
2022-11-14T15:39:04.645Z,51.40
2022-11-14T15:47:39.245Z,51.20
2022-11-14T15:50:37.231Z,50.40
2022-11-14T15:53:23.912Z,51.20
2022-11-14T15:56:12.245Z,50.90
2022-11-14T15:58:57.491Z,51.50
2022-11-14T16:04:33.948Z,51.30
2022-11-14T16:07:20.125Z,51.30
2022-11-14T16:10:19.821Z,51.30
2022-11-14T16:13:05.505Z,51.50
2022-11-14T16:15:51.163Z,52.10
2022-11-14T16:18:36.662Z,51.70
2022-11-14T16:21:22.206Z,51.70
2022-11-14T16:24:14.890Z,50.70
2022-11-14T16:27:00.491Z,51.40
2022-11-14T16:29:46.031Z,51.40
2022-11-14T16:32:31.739Z,51.70
2022-11-14T16:35:25.681Z,50.80
2022-11-14T16:38:14.132Z,51.20
2022-11-14T16:46:31.712Z,50.60
2022-11-14T16:49:19.517Z,50.60
2022-11-14T16:52:08.436Z,50.60
2022-11-14T16:54:54.210Z,51.70
2022-11-14T16:57:40.390Z,51.50
2022-11-14T17:00:25.790Z,50.60
2022-11-14T17:03:11.315Z,50.70
2022-11-14T17:05:56.765Z,50.70
2022-11-14T17:08:42.214Z,51.50
2022-11-14T17:11:28.323Z,51.80
2022-11-14T17:14:13.890Z,51.40
2022-11-14T17:17:02.490Z,50.60
2022-11-14T17:19:47.951Z,51.50
2022-11-14T17:22:33.310Z,50.70
2022-11-14T17:25:19.047Z,51.40
2022-11-14T17:30:50.453Z,50.60
2022-11-14T17:33:36.888Z,50.60
2022-11-14T17:36:24.379Z,50.60
2022-11-14T17:41:55.566Z,50.60
2022-11-14T17:44:41.115Z,50.60
2022-11-14T17:47:28.025Z,50.60
2022-11-14T17:50:13.245Z,51.90
2022-11-14T17:52:58.889Z,53.10
2022-11-14T17:55:45.215Z,51.40
2022-11-14T17:58:32.053Z,50.70
2022-11-14T18:01:20.640Z,50.70
2022-11-14T18:09:39.679Z,50.70
2022-11-14T18:12:25.035Z,52.60
2022-11-14T18:15:10.952Z,51.80
2022-11-14T18:17:56.178Z,53.10
2022-11-14T18:26:15.655Z,50.70
2022-11-14T18:29:02.331Z,50.80
2022-11-14T18:34:36.761Z,50.70
2022-11-14T18:40:15.710Z,50.80
2022-11-14T18:43:01.811Z,50.80
2022-11-14T18:48:33.490Z,50.70
2022-11-14T18:51:21.583Z,50.80
2022-11-14T18:54:09.182Z,50.80
2022-11-14T18:56:54.394Z,51.80
2022-11-14T18:59:39.850Z,52.90
2022-11-14T19:02:25.297Z,50.90
2022-11-14T19:07:56.883Z,50.80
2022-11-14T19:16:14.706Z,50.80
2022-11-14T19:19:01.434Z,50.80
2022-11-14T19:21:50.584Z,51.70
2022-11-14T19:24:36.158Z,51.00
2022-11-14T19:30:08.521Z,50.90
2022-11-14T19:38:25.962Z,51.00
2022-11-14T19:41:22.770Z,51.00
2022-11-14T19:44:08.002Z,51.00
2022-11-14T19:46:53.534Z,51.00
2022-11-14T19:49:38.979Z,51.60
2022-11-14T19:57:56.071Z,51.10
2022-11-14T20:00:41.591Z,51.00
2022-11-14T20:03:27.761Z,51.10
2022-11-14T20:06:23.276Z,51.10
2022-11-14T20:09:10.452Z,51.20
2022-11-14T20:11:55.990Z,51.10
2022-11-14T20:14:41.784Z,51.10
2022-11-14T20:20:13.370Z,51.20
2022-11-14T20:22:58.883Z,51.30
2022-11-14T20:25:50.317Z,51.20
2022-11-14T20:28:36.056Z,51.30
2022-11-14T20:31:24.807Z,51.40
2022-11-14T20:34:11.264Z,51.60
2022-11-14T20:37:10.477Z,51.40
2022-11-14T20:39:56.693Z,51.40
2022-11-14T20:42:41.825Z,52.40
2022-11-14T20:45:28.102Z,52.20
2022-11-14T20:48:13.393Z,51.40
2022-11-14T20:51:18.597Z,51.50
2022-11-14T20:54:04.227Z,53.60
2022-11-14T20:56:49.601Z,52.40
2022-11-14T20:59:35.094Z,51.60
2022-11-14T21:10:45.936Z,51.60
2022-11-14T21:16:39.563Z,51.60
2022-11-14T21:19:25.222Z,51.60
2022-11-14T21:22:10.876Z,51.70
2022-11-14T21:24:56.285Z,52.60
2022-11-14T21:27:41.896Z,53.50
2022-11-14T21:30:30.397Z,53.10
2022-11-14T21:36:29.666Z,51.90
2022-11-14T21:42:00.470Z,51.80
2022-11-14T21:56:08.892Z,52.00
2022-11-14T21:59:12.382Z,52.20
2022-11-14T22:02:16.220Z,52.10
2022-11-14T22:16:11.202Z,52.50
2022-11-14T22:21:50.325Z,52.50
2022-11-14T22:24:36.014Z,52.50
2022-11-14T22:27:21.381Z,52.50
2022-11-14T22:38:24.617Z,52.70
2022-11-14T22:41:13.150Z,52.90
2022-11-14T22:46:44.639Z,52.90
2022-11-14T22:52:15.719Z,53.00
2022-11-14T23:03:20.772Z,53.60
2022-11-14T23:06:10.722Z,53.30
2022-11-14T23:22:46.265Z,53.50
2022-11-14T23:25:31.758Z,53.50
2022-11-14T23:31:03.601Z,53.60
2022-11-14T23:33:50.381Z,53.70
2022-11-14T23:44:53.590Z,54.10
2022-11-14T23:53:11.972Z,54.20
2022-11-14T23:56:00.178Z,54.30
2022-11-14T23:58:45.707Z,54.30
